Flagstaff, AZ

9:53 PM MST on August 21, 2014 (GMT -0700)
Bow and Arrow | Change Station
CLOSE
Current Station
Personal Weather Station
Location: Flagstaff, AZ
Elevation: 6900 ft
Nearby Weather Stations

Elev 6900 ft 35.16 °N, 111.66 °W | Updated 11 seconds ago

Overcast
Overcast
55.4 °F
Feels Like 55.4 °F
N
0.0
Wind Variable Wind from ESE
Gusts 0.0 mph

Today
High -- | Low -- °F
--% Chance of Precip.
Yesterday
High -- | Low -- °F
Precip. -- in
5:50 AM 7:07 PM
Waning Crescent, 10% visible
Pressure 30.05 in
Visibility 10.0 miles
Clouds Overcast 7000 ft
Dew Point 34 °F
Humidity 44%
Rainfall 0.20 in
Snow Depth 0 in
UV 0 out of 12
Pollen 4.50 out of 12
Air Quality Not available.
Flu Activity Not available.
METAR KFLG 220357Z 00000KT 10SM OVC070 12/11 A3030 RMK AO2 SLP174 T01220111

More Conditions Fewer Conditions

Pressure 30.05 in
Visibility 10.0 miles
Clouds Overcast 7000 ft
Dew Point 34 °F
Humidity 44%
Rainfall 0.20 in
Snow Depth 0 in
UV 0 out of 12
Pollen 4.50 out of 12
Air Quality Not available.
Flu Activity Not available.
METAR KFLG 220357Z 00000KT 10SM OVC070 12/11 A3030 RMK AO2 SLP174 T01220111

More Conditions Fewer Conditions

10-Day Weather Forecast

Almanac

Astronomy

Aug. 21, 2014 Rise Set
Actual Time 5:50 AM MST 7:07 PM MST
Civil Twilight 5:24 AM MST 7:34 PM MST
Nautical Twilight 4:52 AM MST 8:05 PM MST
Astronomical Twilight 4:19 AM MST 8:38 PM MST
Moon 2:28 AM MST (8/21) 4:35 PM MST (8/21)
Length of Visible Light 14h 09m
Length of Day
13h 16m
Tomorrow will be 2m 1s shorter.
Waning Crescent, 10% of the Moon is Illuminated
Aug 22
Waning Crescent
Aug 25
New
Sep 2
First Quarter
Sep 8
Full
Sep 15
Last Quarter

Yesterday's Extremes

State Highs State Lows

Community

WunderPhotos

Upload Photos

1,746,130 photos uploaded!

Nearby

Snow Depth

Station Depth Elevation
Mormon Mountain 0 in 7500 ft
White Horse Lake 0 in 7180 ft
Snowslide Canyon 1 in 9730 ft
Promontory 0 in 7930 ft
Heber 0 in 7640 ft

Earthquake Activity

City Distance Mag. Time & Date
No recent earthquake activity has been reported nearby.
Minimum magnitude displayed is 2.5.

Coastal Water Temperatures

Place Temperature
No Stations Reporting

Nearby Weather Stations